createdAt,value
2019-04-30T00:01:48.530Z,9.20
2019-04-30T00:04:29.981Z,9.40
2019-04-30T00:06:58.892Z,9.90
2019-04-30T00:09:28.574Z,11.07
2019-04-30T00:12:00.993Z,9.53
2019-04-30T00:14:36.852Z,8.17
2019-04-30T00:16:59.642Z,8.83
2019-04-30T00:19:28.863Z,10.37
2019-04-30T00:22:00.437Z,10.27
2019-04-30T00:24:28.993Z,10.10
2019-04-30T00:26:58.211Z,10.13
2019-04-30T00:29:30.879Z,10.93
2019-04-30T00:32:04.530Z,10.50
2019-04-30T00:34:30.951Z,10.10
2019-04-30T00:37:00.326Z,9.13
2019-04-30T00:39:29.688Z,10.67
2019-04-30T00:41:58.904Z,9.40
2019-04-30T00:44:28.537Z,10.27
2019-04-30T00:47:00.759Z,11.27
2019-04-30T00:49:28.818Z,7.77
2019-04-30T00:51:58.338Z,7.83
2019-04-30T00:54:30.616Z,7.83
2019-04-30T00:57:03.773Z,8.40
2019-04-30T00:59:29.592Z,9.07
2019-04-30T01:02:20.116Z,6.30
2019-04-30T01:04:47.268Z,8.63
2019-04-30T01:07:16.673Z,8.60
2019-04-30T01:09:49.442Z,10.37
2019-04-30T01:12:24.291Z,8.53
2019-04-30T01:14:49.660Z,10.00
2019-04-30T01:17:18.973Z,9.70
2019-04-30T01:19:51.160Z,8.20
2019-04-30T01:22:27.761Z,7.60
2019-04-30T01:24:51.780Z,7.23
2019-04-30T01:27:21.017Z,6.07
2019-04-30T01:29:51.973Z,5.50
2019-04-30T01:32:21.323Z,5.90
2019-04-30T01:34:53.866Z,6.03
2019-04-30T01:37:28.357Z,6.80
2019-04-30T01:39:52.493Z,5.70
2019-04-30T01:42:21.745Z,6.70
2019-04-30T01:44:53.812Z,6.73
2019-04-30T01:47:27.838Z,6.40
2019-04-30T01:49:55.951Z,6.03
2019-04-30T01:52:29.183Z,6.93
2019-04-30T01:54:58.639Z,8.30
2019-04-30T01:57:40.570Z,6.20
2019-04-30T02:00:26.793Z,5.90
2019-04-30T02:02:56.069Z,6.40
2019-04-30T02:05:25.359Z,6.37
2019-04-30T02:07:54.573Z,6.30
2019-04-30T02:10:23.789Z,6.57
2019-04-30T02:12:53.185Z,6.13
2019-04-30T02:15:22.392Z,6.83
2019-04-30T02:17:51.613Z,6.40
2019-04-30T02:20:20.854Z,6.07
2019-04-30T02:22:50.076Z,6.17
2019-04-30T02:25:19.626Z,6.23
2019-04-30T02:27:49.002Z,6.80
2019-04-30T02:30:20.846Z,6.40
2019-04-30T02:32:52.238Z,6.23
2019-04-30T02:35:40.894Z,5.27
2019-04-30T02:38:14.639Z,6.27
2019-04-30T02:40:44.852Z,6.20
2019-04-30T02:43:15.699Z,6.50
2019-04-30T02:45:44.924Z,6.67
2019-04-30T02:48:14.166Z,6.60
2019-04-30T02:50:43.430Z,6.27
2019-04-30T02:53:50.542Z,6.93
2019-04-30T02:56:20.649Z,6.63
2019-04-30T02:58:50.686Z,7.13
2019-04-30T03:01:20.497Z,6.67
2019-04-30T03:03:50.299Z,7.17
2019-04-30T03:06:20.364Z,7.10
2019-04-30T03:08:51.380Z,7.30
2019-04-30T03:11:21.070Z,7.30
2019-04-30T03:13:50.543Z,7.87
2019-04-30T03:16:23.954Z,7.50
2019-04-30T03:19:06.368Z,7.23
2019-04-30T03:21:45.562Z,7.43
2019-04-30T03:24:14.793Z,8.73
2019-04-30T03:26:44.015Z,7.53
2019-04-30T03:29:13.221Z,7.67
2019-04-30T03:31:45.006Z,7.60
2019-04-30T03:34:19.505Z,7.40
2019-04-30T03:36:44.274Z,7.83
2019-04-30T03:39:13.500Z,8.13
2019-04-30T03:41:45.704Z,8.70
2019-04-30T03:44:21.515Z,8.73
2019-04-30T03:46:45.888Z,9.17
2019-04-30T03:49:15.124Z,8.70
2019-04-30T03:51:45.241Z,8.33
2019-04-30T03:54:19.108Z,8.70
2019-04-30T03:56:50.150Z,9.37
2019-04-30T03:59:19.912Z,10.50
2019-04-30T04:02:05.432Z,10.10
2019-04-30T04:04:53.735Z,10.43
2019-04-30T04:07:44.810Z,10.30
2019-04-30T04:10:29.731Z,10.73
2019-04-30T04:12:59.699Z,10.67
2019-04-30T04:15:29.895Z,10.40
2019-04-30T04:18:00.333Z,11.13
2019-04-30T04:20:30.018Z,10.53
2019-04-30T04:22:59.856Z,11.27
2019-04-30T04:25:29.916Z,11.10
2019-04-30T04:28:00.359Z,10.70
2019-04-30T04:30:30.058Z,11.10
2019-04-30T04:33:00.068Z,12.03
2019-04-30T04:35:30.095Z,11.43
2019-04-30T04:38:02.085Z,10.83
2019-04-30T04:40:31.307Z,11.67
2019-04-30T04:43:00.594Z,11.90
2019-04-30T04:45:30.490Z,12.20
2019-04-30T04:48:01.723Z,10.87
2019-04-30T04:50:30.941Z,11.57
2019-04-30T04:53:00.181Z,11.93
2019-04-30T04:55:29.978Z,12.40
2019-04-30T04:57:59.928Z,13.07
2019-04-30T05:00:36.546Z,12.60
2019-04-30T05:03:29.872Z,12.30
2019-04-30T05:06:01.910Z,11.33
2019-04-30T05:08:30.306Z,12.40
2019-04-30T05:11:01.930Z,12.90
2019-04-30T05:13:31.125Z,12.00
2019-04-30T05:16:00.362Z,12.60
2019-04-30T05:18:29.580Z,12.27
2019-04-30T05:20:59.127Z,12.50
2019-04-30T05:23:29.865Z,12.57
2019-04-30T05:25:59.421Z,13.80
2019-04-30T05:28:30.139Z,12.00
2019-04-30T05:30:59.528Z,12.73
2019-04-30T05:33:28.786Z,13.00
2019-04-30T05:35:59.460Z,13.67
2019-04-30T05:38:31.266Z,14.63
2019-04-30T05:40:59.744Z,11.13
2019-04-30T05:43:29.090Z,13.20
2019-04-30T05:45:58.679Z,12.87
2019-04-30T05:48:28.690Z,12.70
2019-04-30T05:50:59.172Z,12.80
2019-04-30T05:53:28.815Z,14.53
2019-04-30T05:55:59.338Z,13.73
2019-04-30T05:58:29.994Z,13.93
2019-04-30T06:00:59.850Z,13.63
2019-04-30T06:03:32.991Z,13.93
2019-04-30T06:06:00.182Z,13.87
2019-04-30T06:08:36.705Z,14.27
2019-04-30T06:11:13.024Z,14.20
2019-04-30T06:14:08.673Z,12.87
2019-04-30T06:16:39.332Z,13.57
2019-04-30T06:19:08.705Z,14.10
2019-04-30T06:21:39.086Z,14.50
2019-04-30T06:24:10.685Z,13.37
2019-04-30T06:26:39.410Z,13.97
2019-04-30T06:29:09.219Z,13.63
2019-04-30T06:31:40.387Z,14.23
2019-04-30T06:34:09.548Z,13.93
2019-04-30T06:36:50.882Z,13.60
2019-04-30T06:39:09.670Z,13.40
2019-04-30T06:41:40.819Z,13.73
2019-04-30T06:44:09.865Z,14.77
2019-04-30T06:46:39.234Z,13.37
2019-04-30T06:49:09.471Z,14.60
2019-04-30T06:51:38.995Z,15.00
2019-04-30T06:54:11.061Z,15.40
2019-04-30T06:56:40.487Z,15.23
2019-04-30T06:59:09.696Z,14.83
2019-04-30T07:01:38.945Z,14.30
2019-04-30T07:04:08.220Z,13.93
2019-04-30T07:06:43.919Z,14.03
2019-04-30T07:09:48.922Z,13.23
2019-04-30T07:12:25.177Z,13.73
2019-04-30T07:14:47.018Z,13.60
2019-04-30T07:17:16.255Z,14.73
2019-04-30T07:19:54.293Z,14.37
2019-04-30T07:22:16.461Z,12.57
2019-04-30T07:24:45.973Z,13.63
2019-04-30T07:27:15.184Z,12.83
2019-04-30T07:29:44.423Z,12.53
2019-04-30T07:32:13.625Z,12.13
2019-04-30T07:34:42.857Z,11.70
2019-04-30T07:37:20.534Z,12.70
2019-04-30T07:39:43.096Z,11.77
2019-04-30T07:42:12.311Z,11.80
2019-04-30T07:44:41.529Z,11.37
2019-04-30T07:47:10.793Z,12.43
2019-04-30T07:49:51.588Z,11.80
2019-04-30T07:52:14.485Z,12.90
2019-04-30T07:54:44.266Z,12.97
2019-04-30T07:57:13.498Z,14.00
2019-04-30T07:59:42.706Z,14.53
2019-04-30T08:02:14.588Z,14.87
2019-04-30T08:04:47.076Z,14.23
2019-04-30T08:07:16.390Z,14.07
2019-04-30T08:09:45.704Z,14.87
2019-04-30T08:12:22.137Z,14.27
2019-04-30T08:14:45.922Z,14.10
2019-04-30T08:17:15.149Z,14.50
2019-04-30T08:19:48.959Z,13.67
2019-04-30T08:22:19.690Z,14.20
2019-04-30T08:24:49.264Z,14.70
2019-04-30T08:27:19.628Z,15.47
2019-04-30T08:29:50.040Z,17.20
2019-04-30T08:32:19.413Z,17.13
2019-04-30T08:34:50.979Z,16.07
2019-04-30T08:37:20.432Z,15.87
2019-04-30T08:39:50.841Z,14.37
2019-04-30T08:42:30.998Z,14.87
2019-04-30T08:44:55.163Z,15.33
2019-04-30T08:47:24.367Z,15.00
2019-04-30T08:49:53.577Z,15.30
2019-04-30T08:52:22.892Z,15.17
2019-04-30T08:54:52.260Z,16.13
2019-04-30T08:57:21.494Z,14.23
2019-04-30T08:59:50.760Z,14.60
2019-04-30T09:02:19.989Z,14.77
2019-04-30T09:04:52.417Z,15.17
2019-04-30T09:07:21.633Z,15.73
2019-04-30T09:09:50.866Z,17.07
2019-04-30T09:12:20.144Z,15.03
2019-04-30T09:14:49.476Z,17.97
2019-04-30T09:17:19.922Z,18.10
2019-04-30T09:19:49.373Z,19.67
2019-04-30T09:22:19.460Z,20.00
2019-04-30T09:24:49.725Z,20.57
2019-04-30T09:27:21.130Z,19.70
2019-04-30T09:29:50.345Z,21.03
2019-04-30T09:32:19.584Z,20.57
2019-04-30T09:34:49.028Z,18.83
2019-04-30T09:37:18.836Z,20.17
2019-04-30T09:39:49.987Z,21.33
2019-04-30T09:42:21.216Z,16.33
2019-04-30T09:44:50.758Z,15.83
2019-04-30T09:47:20.222Z,16.37
2019-04-30T09:49:49.555Z,13.73
2019-04-30T09:52:19.708Z,12.20
2019-04-30T09:54:50.194Z,11.67
2019-04-30T09:57:20.056Z,11.13
2019-04-30T09:59:51.256Z,9.80
2019-04-30T10:02:21.769Z,10.93
2019-04-30T10:04:51.354Z,10.70
2019-04-30T10:07:21.512Z,9.07
2019-04-30T10:09:51.062Z,7.47
2019-04-30T10:12:20.454Z,8.20
2019-04-30T10:14:49.748Z,8.43
2019-04-30T10:17:25.889Z,8.93
2019-04-30T10:19:55.201Z,9.00
2019-04-30T10:22:24.924Z,8.80
2019-04-30T10:24:54.165Z,8.40
2019-04-30T10:27:23.462Z,9.33
2019-04-30T10:29:52.781Z,9.27
2019-04-30T10:32:22.015Z,8.67
2019-04-30T10:34:51.343Z,9.00
2019-04-30T10:37:20.774Z,9.60
2019-04-30T10:39:50.020Z,9.27
2019-04-30T10:42:19.238Z,9.13
2019-04-30T10:44:48.466Z,8.93
2019-04-30T10:47:19.278Z,8.77
2019-04-30T10:49:48.790Z,7.93
2019-04-30T10:52:19.324Z,8.70
2019-04-30T10:54:51.719Z,6.93
2019-04-30T10:57:22.204Z,7.00
2019-04-30T10:59:51.437Z,6.10
2019-04-30T11:02:23.776Z,6.27
2019-04-30T11:04:53.054Z,6.57
2019-04-30T11:07:22.319Z,6.53
2019-04-30T11:09:51.547Z,6.73
2019-04-30T11:12:20.793Z,7.33
2019-04-30T11:14:50.054Z,7.97
2019-04-30T11:17:20.947Z,7.10
2019-04-30T11:19:50.490Z,6.60
2019-04-30T11:22:20.442Z,7.53
2019-04-30T11:24:58.416Z,7.20
2019-04-30T11:27:21.532Z,8.23
2019-04-30T11:29:51.357Z,9.70
2019-04-30T11:32:23.326Z,9.23
2019-04-30T11:34:52.774Z,9.37
2019-04-30T11:37:21.993Z,9.77
2019-04-30T11:39:51.213Z,9.80
2019-04-30T11:42:20.431Z,10.80
2019-04-30T11:44:49.701Z,10.70
2019-04-30T11:47:33.028Z,9.93
2019-04-30T11:50:02.523Z,11.37
2019-04-30T11:52:31.787Z,10.97
2019-04-30T11:55:03.081Z,10.37
2019-04-30T11:57:32.317Z,8.67
2019-04-30T12:00:01.616Z,8.43
2019-04-30T12:02:52.834Z,8.40
2019-04-30T12:05:20.951Z,8.00
2019-04-30T12:07:55.486Z,8.70
2019-04-30T12:10:30.213Z,8.13
2019-04-30T12:12:59.429Z,6.50
2019-04-30T12:15:29.139Z,8.20
2019-04-30T12:17:58.578Z,8.77
2019-04-30T12:20:29.233Z,8.53
2019-04-30T12:22:59.152Z,7.77
2019-04-30T12:25:30.317Z,8.77
2019-04-30T12:27:59.677Z,9.10
2019-04-30T12:30:29.090Z,8.03
2019-04-30T12:33:00.669Z,8.40
2019-04-30T12:35:29.866Z,8.83
2019-04-30T12:38:19.120Z,9.20
2019-04-30T12:40:48.601Z,9.83
2019-04-30T12:43:17.872Z,8.57
2019-04-30T12:45:50.229Z,8.33
2019-04-30T12:48:33.612Z,8.47
2019-04-30T12:51:21.924Z,9.20
2019-04-30T12:53:55.144Z,8.43
2019-04-30T12:56:36.224Z,8.60
2019-04-30T12:59:05.421Z,7.70
2019-04-30T13:01:34.702Z,8.43
2019-04-30T13:04:04.045Z,7.53
2019-04-30T13:06:33.788Z,8.27
2019-04-30T13:09:05.011Z,7.10
2019-04-30T13:11:35.145Z,7.53
2019-04-30T13:14:05.515Z,7.23
2019-04-30T13:16:34.936Z,7.97
2019-04-30T13:19:04.205Z,8.10
2019-04-30T13:21:41.887Z,8.00
2019-04-30T13:24:15.375Z,7.20
2019-04-30T13:27:09.439Z,8.33
2019-04-30T13:30:20.534Z,7.93
2019-04-30T13:33:21.687Z,7.53
2019-04-30T13:35:58.857Z,7.93
2019-04-30T13:38:49.190Z,8.47
2019-04-30T13:41:18.756Z,7.93
2019-04-30T13:43:59.916Z,7.83
2019-04-30T13:46:36.213Z,8.00
2019-04-30T13:49:16.297Z,7.73
2019-04-30T13:51:45.550Z,8.17
2019-04-30T13:54:23.444Z,8.27
2019-04-30T13:56:56.835Z,6.00
2019-04-30T13:59:29.308Z,8.80
2019-04-30T14:02:06.100Z,8.50
2019-04-30T14:05:00.557Z,9.00
2019-04-30T14:07:50.798Z,8.97
2019-04-30T14:10:24.861Z,9.10
2019-04-30T14:13:01.728Z,8.50
2019-04-30T14:15:31.029Z,10.07
2019-04-30T14:18:30.963Z,8.87
2019-04-30T14:20:55.099Z,9.73
2019-04-30T14:23:40.536Z,8.67
2019-04-30T14:26:20.560Z,8.97
2019-04-30T14:28:52.416Z,9.00
2019-04-30T14:31:28.888Z,8.77
2019-04-30T14:34:04.495Z,9.07
2019-04-30T14:36:40.101Z,10.80
2019-04-30T14:39:23.976Z,10.27
2019-04-30T14:41:54.407Z,10.27
2019-04-30T14:44:31.005Z,10.67
2019-04-30T14:47:23.033Z,9.60
2019-04-30T14:50:14.129Z,8.80
2019-04-30T14:53:00.048Z,9.47
2019-04-30T14:55:55.617Z,8.27
2019-04-30T14:58:40.524Z,8.43
2019-04-30T15:01:32.438Z,8.67
2019-04-30T15:04:13.114Z,8.50
2019-04-30T15:06:48.671Z,8.20
2019-04-30T15:09:29.942Z,7.13
2019-04-30T15:12:00.457Z,8.23
2019-04-30T15:14:38.800Z,7.20
2019-04-30T15:17:09.314Z,6.37
2019-04-30T15:19:38.546Z,6.80
2019-04-30T15:22:09.106Z,8.37
2019-04-30T15:24:39.424Z,7.13
2019-04-30T15:27:09.282Z,6.87
2019-04-30T15:29:39.207Z,6.57
2019-04-30T15:32:08.870Z,7.50
2019-04-30T15:34:42.359Z,7.10
2019-04-30T15:37:19.262Z,6.17
2019-04-30T15:39:43.023Z,6.93
2019-04-30T15:42:13.135Z,7.20
2019-04-30T15:44:45.234Z,7.13
2019-04-30T15:47:13.421Z,7.63
2019-04-30T15:49:42.669Z,8.30
2019-04-30T15:52:11.984Z,7.90
2019-04-30T15:54:41.218Z,8.27
2019-04-30T15:57:10.456Z,7.17
2019-04-30T15:59:46.476Z,8.63
2019-04-30T16:02:34.861Z,8.77
2019-04-30T16:05:23.988Z,8.43
2019-04-30T16:08:08.914Z,10.43
2019-04-30T16:11:00.164Z,9.30
2019-04-30T16:13:32.116Z,10.20
2019-04-30T16:16:02.961Z,10.13
2019-04-30T16:18:45.632Z,9.43
2019-04-30T16:21:25.566Z,10.27
2019-04-30T16:23:59.154Z,8.70
2019-04-30T16:26:29.106Z,6.70
2019-04-30T16:28:58.662Z,8.97
2019-04-30T16:31:30.466Z,7.93
2019-04-30T16:33:59.706Z,7.97
2019-04-30T16:36:29.174Z,7.33
2019-04-30T16:38:58.726Z,7.80
2019-04-30T16:41:31.466Z,7.87
2019-04-30T16:43:59.452Z,8.23
2019-04-30T16:46:40.821Z,6.33
2019-04-30T16:49:25.093Z,6.73
2019-04-30T16:51:55.431Z,7.07
2019-04-30T16:54:25.287Z,6.90
2019-04-30T16:57:03.450Z,7.57
2019-04-30T16:59:40.097Z,7.10
2019-04-30T17:02:09.476Z,6.87
2019-04-30T17:04:49.407Z,6.97
2019-04-30T17:07:38.699Z,7.33
2019-04-30T17:10:16.310Z,6.40
2019-04-30T17:13:05.210Z,6.07
2019-04-30T17:15:35.438Z,6.10
2019-04-30T17:18:14.883Z,6.07
2019-04-30T17:20:44.152Z,5.73
2019-04-30T17:23:13.370Z,5.80
2019-04-30T17:25:42.590Z,6.37
2019-04-30T17:28:11.834Z,5.83
2019-04-30T17:30:41.332Z,5.80
2019-04-30T17:33:10.541Z,5.77
2019-04-30T17:35:39.863Z,5.60
2019-04-30T17:38:09.216Z,6.40
2019-04-30T17:40:38.966Z,5.70
2019-04-30T17:43:08.243Z,5.40
2019-04-30T17:45:39.177Z,5.70
2019-04-30T17:48:08.600Z,5.60
2019-04-30T17:50:39.513Z,5.30
2019-04-30T17:53:09.113Z,5.37
2019-04-30T17:55:39.143Z,5.80
2019-04-30T17:58:09.718Z,5.90
2019-04-30T18:00:44.858Z,5.30
2019-04-30T18:03:14.098Z,5.40
2019-04-30T18:05:43.337Z,5.50
2019-04-30T18:08:13.905Z,5.00
2019-04-30T18:10:43.134Z,5.53
2019-04-30T18:13:17.507Z,5.27
2019-04-30T18:15:48.356Z,4.67
2019-04-30T18:18:36.996Z,4.93
2019-04-30T18:21:19.023Z,5.30
2019-04-30T18:24:19.510Z,5.90
2019-04-30T18:26:56.442Z,4.90
2019-04-30T18:29:25.666Z,5.47
2019-04-30T18:31:55.015Z,5.40
2019-04-30T18:34:24.241Z,5.00
2019-04-30T18:36:53.531Z,5.37
2019-04-30T18:39:22.834Z,5.23
2019-04-30T18:41:52.068Z,5.50
2019-04-30T18:44:21.300Z,5.67
2019-04-30T18:46:50.561Z,5.50
2019-04-30T18:49:19.897Z,5.40
2019-04-30T18:51:49.291Z,5.87
2019-04-30T18:54:20.891Z,6.00
2019-04-30T18:56:49.526Z,6.13
2019-04-30T18:59:19.621Z,5.63
2019-04-30T19:01:49.529Z,5.93
2019-04-30T19:04:19.025Z,6.20
2019-04-30T19:06:48.923Z,6.10
2019-04-30T19:09:29.676Z,6.10
2019-04-30T19:12:16.421Z,6.20
2019-04-30T19:15:04.805Z,6.33
2019-04-30T19:17:51.811Z,6.13
2019-04-30T19:20:28.683Z,6.80
2019-04-30T19:22:58.054Z,6.70
2019-04-30T19:25:28.919Z,6.73
2019-04-30T19:28:09.617Z,6.73
2019-04-30T19:30:30.196Z,6.70
2019-04-30T19:33:03.347Z,6.43
2019-04-30T19:35:32.640Z,6.70
2019-04-30T19:38:01.983Z,7.20
2019-04-30T19:40:31.240Z,7.57
2019-04-30T19:43:00.533Z,7.10
2019-04-30T19:45:29.745Z,7.03
2019-04-30T19:47:59.037Z,9.00
2019-04-30T19:50:28.330Z,8.60
2019-04-30T19:52:58.768Z,9.27
2019-04-30T19:55:28.622Z,9.53
2019-04-30T19:57:59.872Z,15.67
2019-04-30T20:00:29.325Z,13.10
2019-04-30T20:03:00.038Z,15.97
2019-04-30T20:05:29.486Z,16.70
2019-04-30T20:07:59.197Z,15.47
2019-04-30T20:10:28.840Z,15.50
2019-04-30T20:12:58.808Z,15.63
2019-04-30T20:15:29.841Z,16.13
2019-04-30T20:18:01.045Z,18.13
2019-04-30T20:20:30.161Z,16.50
2019-04-30T20:22:59.408Z,18.27
2019-04-30T20:25:28.621Z,20.33
2019-04-30T20:27:57.905Z,21.07
2019-04-30T20:30:29.159Z,20.73
2019-04-30T20:32:59.452Z,20.27
2019-04-30T20:35:28.748Z,19.63
2019-04-30T20:38:32.201Z,20.40
2019-04-30T20:41:03.212Z,20.37
2019-04-30T20:43:32.704Z,21.33
2019-04-30T20:46:01.995Z,21.07
2019-04-30T20:48:31.237Z,21.03
2019-04-30T20:51:01.404Z,21.10
2019-04-30T20:53:30.884Z,22.20
2019-04-30T20:56:00.118Z,21.07
2019-04-30T20:58:29.357Z,21.77
2019-04-30T21:01:03.932Z,21.70
2019-04-30T21:03:29.689Z,20.53
2019-04-30T21:06:00.566Z,22.20
2019-04-30T21:08:29.969Z,23.33
2019-04-30T21:10:59.429Z,19.90
2019-04-30T21:13:29.486Z,21.00
2019-04-30T21:15:59.469Z,20.27
2019-04-30T21:18:32.345Z,21.47
2019-04-30T21:20:59.786Z,20.23
2019-04-30T21:23:29.396Z,20.37
2019-04-30T21:25:59.052Z,20.33
2019-04-30T21:28:29.760Z,19.83
2019-04-30T21:31:19.631Z,18.20
2019-04-30T21:33:50.560Z,20.40
2019-04-30T21:36:22.560Z,20.97
2019-04-30T21:38:51.932Z,18.97
2019-04-30T21:41:21.240Z,19.70
2019-04-30T21:43:50.463Z,19.37
2019-04-30T21:46:19.685Z,19.87
2019-04-30T21:48:48.921Z,18.37
2019-04-30T21:51:19.299Z,20.27
2019-04-30T21:53:50.356Z,18.50
2019-04-30T21:56:19.765Z,19.33
2019-04-30T21:58:49.057Z,20.13
2019-04-30T22:01:21.554Z,19.80
2019-04-30T22:03:51.006Z,20.57
2019-04-30T22:06:20.242Z,18.30
2019-04-30T22:08:49.466Z,20.43
2019-04-30T22:11:19.787Z,20.10
2019-04-30T22:13:49.457Z,19.17
2019-04-30T22:16:20.431Z,19.90
2019-04-30T22:18:50.338Z,17.90
2019-04-30T22:21:19.622Z,20.07
2019-04-30T22:23:48.988Z,21.57
2019-04-30T22:26:53.496Z,19.70
2019-04-30T22:29:22.740Z,20.20
2019-04-30T22:31:52.021Z,19.37
2019-04-30T22:34:21.324Z,20.20
2019-04-30T22:36:50.632Z,19.50
2019-04-30T22:39:41.569Z,21.20
2019-04-30T22:42:29.767Z,19.67
2019-04-30T22:44:59.837Z,19.67
2019-04-30T22:47:29.100Z,19.97
2019-04-30T22:50:00.751Z,20.60
2019-04-30T22:52:30.462Z,22.20
2019-04-30T22:54:59.718Z,21.33
2019-04-30T22:57:28.993Z,21.63
2019-04-30T22:59:58.262Z,21.63
2019-04-30T23:02:42.748Z,21.03
2019-04-30T23:05:13.948Z,22.37
2019-04-30T23:07:44.957Z,21.30
2019-04-30T23:10:18.633Z,21.93
2019-04-30T23:12:56.974Z,21.03
2019-04-30T23:15:26.253Z,21.67
2019-04-30T23:17:55.516Z,21.63
2019-04-30T23:20:24.749Z,21.07
2019-04-30T23:22:55.147Z,22.10
2019-04-30T23:25:24.453Z,22.83
2019-04-30T23:27:53.668Z,20.77
2019-04-30T23:30:26.009Z,21.97
2019-04-30T23:32:55.244Z,22.43
2019-04-30T23:35:26.736Z,23.17
2019-04-30T23:37:55.949Z,22.20
2019-04-30T23:40:26.798Z,22.10
2019-04-30T23:42:56.021Z,21.70
2019-04-30T23:45:25.248Z,21.07
2019-04-30T23:47:54.469Z,20.27
2019-04-30T23:50:23.699Z,21.33
2019-04-30T23:52:52.942Z,21.23
2019-04-30T23:55:22.298Z,19.17
2019-04-30T23:57:51.513Z,20.47
